Time;durP1;ratioP1;P1;durP2;ratioP2;P2;SDS_P1;SDS_P2;PMS_P1;PMS_P2;Temp;Humidity;BMP_temperature;BMP_pressure;BME280_temperature;BME280_humidity;BME280_pressure;Samples;Min_cycle;Max_cycle;Signal;HPM_P1;HPM_P2
2021/10/19 00:01:34;;;;;;;18.30;8.80;;;;;;;5.75;75.90;100075.02;116512;1200;138731;-60
2021/10/19 00:04:03;;;;;;;15.00;9.20;;;;;;;5.69;76.32;100078.81;116656;1200;22114;-60
2021/10/19 00:06:31;;;;;;;17.10;9.20;;;;;;;5.66;76.02;100079.86;116563;1200;141574;-60
2021/10/19 00:08:59;;;;;;;14.60;8.90;;;;;;;5.62;76.38;100084.92;116660;1200;22262;-60
2021/10/19 00:11:27;;;;;;;17.90;9.00;;;;;;;5.59;76.35;100088.05;116642;1200;22330;-61
2021/10/19 00:13:55;;;;;;;15.90;9.10;;;;;;;5.56;76.71;100089.30;116565;1197;137631;-61
2021/10/19 00:16:23;;;;;;;14.10;9.00;;;;;;;5.52;76.66;100080.57;116689;1200;23437;-61
2021/10/19 00:18:51;;;;;;;17.00;8.90;;;;;;;5.55;76.79;100087.88;116575;1199;138294;-61
2021/10/19 00:21:19;;;;;;;15.90;10.80;;;;;;;5.54;76.86;100087.97;116665;1200;22367;-61
2021/10/19 00:23:47;;;;;;;15.80;9.90;;;;;;;5.52;77.09;100088.59;116571;1193;139237;-61
2021/10/19 00:26:15;;;;;;;18.60;10.70;;;;;;;5.52;77.25;100091.58;116613;1200;22333;-61
2021/10/19 00:28:43;;;;;;;18.20;10.20;;;;;;;5.49;77.27;100094.34;116715;1201;22152;-61
2021/10/19 00:31:11;;;;;;;14.80;10.30;;;;;;;5.45;77.52;100095.02;116535;1200;138355;-61
2021/10/19 00:33:40;;;;;;;14.40;9.30;;;;;;;5.44;77.68;100093.98;116685;1199;22407;-61
2021/10/19 00:36:08;;;;;;;19.40;10.80;;;;;;;5.42;77.53;100089.41;116522;1201;138278;-61
2021/10/19 00:38:36;;;;;;;14.40;9.50;;;;;;;5.39;77.72;100090.86;116620;1200;22819;-60
2021/10/19 00:41:05;;;;;;;18.30;9.10;;;;;;;5.35;77.99;100093.31;116661;1200;22168;-60
2021/10/19 00:43:33;;;;;;;15.50;10.00;;;;;;;5.33;77.64;100094.21;116590;1201;137620;-60
2021/10/19 00:46:01;;;;;;;12.40;8.70;;;;;;;5.31;77.72;100095.88;116657;1200;23119;-60
2021/10/19 00:48:31;;;;;;;21.10;10.50;;;;;;;5.29;78.11;100096.79;116541;1200;138010;-60
2021/10/19 00:51:00;;;;;;;18.20;9.70;;;;;;;5.27;77.71;100095.08;116683;1200;22390;-59
2021/10/19 00:53:28;;;;;;;15.80;9.20;;;;;;;5.24;77.95;100096.40;116684;1200;22875;-59
2021/10/19 00:55:57;;;;;;;14.90;9.70;;;;;;;5.21;78.03;100099.56;116514;1193;139792;-59
2021/10/19 00:58:25;;;;;;;20.00;10.00;;;;;;;5.16;77.87;100096.63;116719;1200;23272;-59
2021/10/19 01:00:52;;;;;;;12.60;8.50;;;;;;;5.13;77.97;100106.48;116545;1200;139198;-60
2021/10/19 01:03:21;;;;;;;16.00;10.10;;;;;;;5.08;78.23;100100.27;116610;1200;23330;-60
2021/10/19 01:05:49;;;;;;;13.20;9.30;;;;;;;5.10;78.27;100105.92;116582;1201;138338;-60
2021/10/19 01:08:17;;;;;;;16.50;10.20;;;;;;;5.10;78.22;100105.85;116628;1200;22555;-60
2021/10/19 01:10:45;;;;;;;19.40;11.00;;;;;;;5.07;78.29;100100.40;116690;1200;23145;-60
2021/10/19 01:13:33;;;;;;;13.90;8.70;;;;;;;5.05;78.31;100105.67;116571;1201;138852;-60
2021/10/19 01:16:06;;;;;;;15.30;9.50;;;;;;;5.04;78.33;100105.11;116639;1200;22218;-60
2021/10/19 01:18:34;;;;;;;14.10;9.40;;;;;;;5.04;78.36;100110.10;116441;1201;138242;-60
2021/10/19 01:21:03;;;;;;;15.80;9.80;;;;;;;5.00;78.15;100107.14;116724;1200;23415;-60
2021/10/19 01:23:35;;;;;;;17.60;9.40;;;;;;;5.01;77.97;100113.38;116679;1200;23434;-60
2021/10/19 01:26:04;;;;;;;15.00;9.40;;;;;;;4.99;78.24;100112.92;116529;1200;138369;-60
2021/10/19 01:28:35;;;;;;;15.00;9.20;;;;;;;4.96;78.29;100115.03;116691;1200;22424;-60
2021/10/19 01:31:05;;;;;;;17.60;9.70;;;;;;;4.94;78.19;100116.23;116557;1200;137974;-60
2021/10/19 01:33:33;;;;;;;14.80;9.80;;;;;;;4.91;77.98;100118.76;116659;1200;23257;-60
2021/10/19 01:36:01;;;;;;;14.20;9.00;;;;;;;4.88;78.05;100125.21;116560;1200;138681;-60
2021/10/19 01:38:30;;;;;;;13.10;9.00;;;;;;;4.83;77.95;100125.29;116641;1200;23097;-60
2021/10/19 01:40:58;;;;;;;15.70;9.00;;;;;;;4.80;78.07;100123.07;113360;1185;25313;-58
2021/10/19 01:43:27;;;;;;;17.60;9.40;;;;;;;4.75;78.07;100124.41;112268;1197;138054;-58
2021/10/19 01:45:59;;;;;;;14.30;9.10;;;;;;;4.70;77.81;100128.46;112426;1200;22616;-58
2021/10/19 01:48:28;;;;;;;14.60;9.30;;;;;;;4.66;78.37;100131.56;112186;1193;137868;-58
2021/10/19 01:50:57;;;;;;;16.00;9.10;;;;;;;4.62;78.17;100138.73;112391;1200;26527;-59
2021/10/19 01:53:25;;;;;;;15.50;9.60;;;;;;;4.58;78.19;100139.48;112355;1201;22568;-59
2021/10/19 01:55:54;;;;;;;13.90;9.40;;;;;;;4.53;78.44;100140.59;116510;1193;139880;-59
2021/10/19 01:58:24;;;;;;;16.50;9.70;;;;;;;4.50;78.38;100138.54;116624;1201;22235;-59
2021/10/19 02:00:53;;;;;;;12.30;8.40;;;;;;;4.45;78.26;100140.31;116553;1200;137766;-59
2021/10/19 02:03:22;;;;;;;16.90;9.30;;;;;;;4.40;78.33;100137.60;116613;1200;22296;-59
2021/10/19 02:05:51;;;;;;;13.50;8.80;;;;;;;4.34;78.36;100135.54;116517;1200;139718;-59
2021/10/19 02:08:20;;;;;;;11.60;8.00;;;;;;;4.30;78.40;100141.23;116657;1200;22379;-58
2021/10/19 02:10:48;;;;;;;12.40;8.40;;;;;;;4.25;78.58;100144.02;116695;1200;22321;-58
2021/10/19 02:13:16;;;;;;;13.50;7.80;;;;;;;4.23;78.56;100145.55;116536;1200;138398;-59
2021/10/19 02:15:44;;;;;;;14.40;8.90;;;;;;;4.23;78.92;100148.12;116686;1200;22416;-58
2021/10/19 02:18:12;;;;;;;12.10;7.80;;;;;;;4.21;78.55;100149.02;116566;1200;138447;-59
2021/10/19 02:20:40;;;;;;;14.10;8.20;;;;;;;4.20;78.72;100154.74;116668;1200;23131;-58
2021/10/19 02:23:08;;;;;;;18.00;7.80;;;;;;;4.19;78.72;100160.85;116644;1193;22542;-58
2021/10/19 02:25:37;;;;;;;13.80;8.00;;;;;;;4.17;78.91;100164.84;116593;1200;138530;-59
2021/10/19 02:28:05;;;;;;;15.70;8.60;;;;;;;4.16;78.76;100165.41;116615;1200;22313;-58
2021/10/19 02:30:33;;;;;;;12.70;8.00;;;;;;;4.14;78.84;100165.27;116560;1197;138829;-58
2021/10/19 02:33:01;;;;;;;13.90;8.40;;;;;;;4.14;78.98;100166.89;116738;1186;22294;-59
2021/10/19 02:35:29;;;;;;;14.00;7.60;;;;;;;4.13;78.81;100167.71;116664;1200;22270;-58
2021/10/19 02:37:57;;;;;;;13.10;7.90;;;;;;;4.12;79.01;100170.70;116556;1200;139382;-58
2021/10/19 02:40:26;;;;;;;11.40;7.00;;;;;;;4.12;78.79;100175.76;116605;1200;22241;-58
2021/10/19 02:42:54;;;;;;;11.40;7.50;;;;;;;4.09;78.65;100176.27;116564;1193;138434;-58
2021/10/19 02:45:22;;;;;;;13.90;7.80;;;;;;;4.08;78.60;100178.63;116672;1200;22291;-58
2021/10/19 02:47:50;;;;;;;12.60;7.80;;;;;;;4.06;78.42;100182.31;116508;1200;138812;-58
2021/10/19 02:50:18;;;;;;;10.60;7.30;;;;;;;4.02;78.62;100186.33;116649;1200;22468;-58
2021/10/19 02:52:46;;;;;;;13.90;9.20;;;;;;;3.98;78.77;100187.84;116663;1200;22206;-58
2021/10/19 02:55:16;;;;;;;12.30;8.00;;;;;;;4.00;78.85;100191.79;116546;1200;138776;-59
2021/10/19 02:57:50;;;;;;;14.40;8.70;;;;;;;4.00;78.80;100195.73;116679;1199;22265;-58
2021/10/19 03:00:18;;;;;;;12.70;7.90;;;;;;;3.99;78.90;100195.11;116546;1200;139142;-59
2021/10/19 03:02:46;;;;;;;12.70;8.30;;;;;;;3.98;78.74;100197.17;116680;1199;22326;-58
2021/10/19 03:05:15;;;;;;;12.60;8.10;;;;;;;3.95;78.75;100197.48;116645;1201;23034;-58
2021/10/19 03:07:43;;;;;;;12.90;8.00;;;;;;;3.91;79.02;100191.30;116792;1199;137767;-58
2021/10/19 03:10:15;;;;;;;14.20;8.60;;;;;;;3.87;78.53;100189.48;117078;1199;22375;-58
2021/10/19 03:13:03;;;;;;;11.20;7.50;;;;;;;3.87;78.93;100195.41;116744;1186;137797;-59
2021/10/19 03:15:31;;;;;;;14.10;8.40;;;;;;;3.86;78.78;100194.16;116624;1200;22371;-58
2021/10/19 03:17:59;;;;;;;12.30;8.30;;;;;;;3.88;78.93;100195.63;116545;1200;138377;-58
2021/10/19 03:20:30;;;;;;;15.20;8.60;;;;;;;3.88;78.77;100201.19;116777;1199;23208;-58
2021/10/19 03:22:58;;;;;;;14.30;8.60;;;;;;;3.85;78.48;100200.63;116821;1199;22475;-58
2021/10/19 03:25:26;;;;;;;14.00;7.50;;;;;;;3.86;78.70;100203.41;116640;1199;139118;-59
2021/10/19 03:27:54;;;;;;;15.40;8.70;;;;;;;3.83;78.32;100205.21;116620;1199;23050;-58
2021/10/19 03:30:22;;;;;;;14.00;7.20;;;;;;;3.79;78.13;100208.41;116617;1199;138079;-58
2021/10/19 03:32:50;;;;;;;11.30;7.50;;;;;;;3.75;78.36;100212.23;116655;1200;23413;-59
2021/10/19 03:35:18;;;;;;;14.10;8.50;;;;;;;3.71;78.41;100220.67;116756;1198;22319;-59
2021/10/19 03:37:46;;;;;;;11.70;7.60;;;;;;;3.67;78.58;100218.23;116639;1200;137654;-59
2021/10/19 03:40:14;;;;;;;13.00;7.20;;;;;;;3.66;78.47;100217.44;116721;1199;23062;-59
2021/10/19 03:42:42;;;;;;;14.00;8.80;;;;;;;3.63;78.42;100221.14;116597;1200;137965;-59
2021/10/19 03:45:12;;;;;;;13.50;7.70;;;;;;;3.62;78.66;100220.55;116770;1200;22229;-59
2021/10/19 03:47:40;;;;;;;15.50;9.00;;;;;;;3.59;78.35;100223.83;116709;1192;22236;-59
2021/10/19 03:50:09;;;;;;;14.30;8.10;;;;;;;3.58;78.64;100230.11;116682;1199;138153;-59
2021/10/19 03:52:38;;;;;;;13.90;8.40;;;;;;;3.55;78.47;100232.04;116777;1200;22161;-59
2021/10/19 03:55:06;;;;;;;22.20;10.90;;;;;;;3.52;78.41;100230.84;116575;1199;137717;-59
2021/10/19 03:57:39;;;;;;;14.30;8.00;;;;;;;3.49;78.53;100238.44;116728;1199;22397;-59
2021/10/19 04:00:08;;;;;;;16.80;8.10;;;;;;;3.46;78.50;100239.79;116621;1199;137851;-59
2021/10/19 04:02:39;;;;;;;18.30;8.90;;;;;;;3.45;78.60;100245.60;116711;1200;23239;-59
2021/10/19 04:05:08;;;;;;;14.00;8.30;;;;;;;3.40;78.64;100247.00;116806;1199;22456;-59
2021/10/19 04:07:36;;;;;;;15.00;8.60;;;;;;;3.37;78.73;100248.20;116510;1200;137919;-59
2021/10/19 04:10:06;;;;;;;14.30;8.00;;;;;;;3.34;78.90;100248.34;116723;1199;22993;-60
2021/10/19 04:12:36;;;;;;;16.20;9.00;;;;;;;3.31;78.84;100246.11;116568;1200;139215;-59
2021/10/19 04:15:05;;;;;;;15.30;8.60;;;;;;;3.31;78.81;100255.13;116730;1200;22309;-59
2021/10/19 04:17:34;;;;;;;13.70;8.00;;;;;;;3.30;78.92;100256.77;116726;1199;22418;-59
2021/10/19 04:20:03;;;;;;;14.40;7.90;;;;;;;3.30;78.76;100257.69;116637;1199;138544;-59
2021/10/19 04:22:33;;;;;;;15.60;7.50;;;;;;;3.29;78.99;100263.35;116746;1200;22758;-59
2021/10/19 04:25:01;;;;;;;11.90;7.60;;;;;;;3.28;78.80;100262.59;116517;1199;138616;-59
2021/10/19 04:27:29;;;;;;;12.20;6.90;;;;;;;3.29;78.68;100264.38;116753;1197;22335;-59
2021/10/19 04:29:58;;;;;;;12.80;7.90;;;;;;;3.29;78.97;100266.16;116635;1200;138711;-59
2021/10/19 04:32:26;;;;;;;16.40;10.00;;;;;;;3.29;78.72;100272.96;116696;1199;22272;-59
2021/10/19 04:34:54;;;;;;;22.60;12.30;;;;;;;3.28;78.63;100274.52;116748;1199;22237;-59
2021/10/19 04:37:22;;;;;;;30.70;12.50;;;;;;;3.28;78.86;100272.66;116690;1200;139087;-58
2021/10/19 04:39:50;;;;;;;27.30;12.70;;;;;;;3.29;78.82;100274.50;116732;1200;22379;-59
2021/10/19 04:42:18;;;;;;;26.40;14.40;;;;;;;3.30;78.55;100277.69;116639;1200;139148;-58
2021/10/19 04:44:48;;;;;;;26.30;13.20;;;;;;;3.29;78.53;100282.45;116758;1193;22175;-58
2021/10/19 04:47:17;;;;;;;29.50;14.10;;;;;;;3.29;78.31;100284.84;116747;1200;22271;-58
2021/10/19 04:49:46;;;;;;;27.50;12.40;;;;;;;3.28;78.25;100283.71;116616;1186;139152;-58
2021/10/19 04:52:14;;;;;;;23.20;12.50;;;;;;;3.26;78.18;100286.80;116748;1199;22336;-58
2021/10/19 04:54:42;;;;;;;18.00;11.70;;;;;;;3.22;77.98;100283.89;116644;1200;138734;-59
2021/10/19 04:57:10;;;;;;;19.20;10.70;;;;;;;3.23;77.99;100290.82;116665;1199;23929;-58
2021/10/19 04:59:40;;;;;;;17.20;10.10;;;;;;;3.22;78.03;100290.02;116771;1200;22413;-58
2021/10/19 05:02:08;;;;;;;17.00;9.70;;;;;;;3.21;78.16;100293.48;116533;1201;137715;-58
2021/10/19 05:04:37;;;;;;;13.60;9.50;;;;;;;3.22;78.19;100300.85;116750;1193;23099;-58
2021/10/19 05:07:05;;;;;;;12.40;8.70;;;;;;;3.24;78.04;100304.80;116540;1200;137808;-59
2021/10/19 05:09:33;;;;;;;18.40;9.40;;;;;;;3.26;78.23;100309.71;116760;1199;22382;-59
2021/10/19 05:12:03;;;;;;;12.40;8.40;;;;;;;3.27;78.40;100311.96;116703;1199;138739;-59
2021/10/19 05:14:31;;;;;;;16.00;8.90;;;;;;;3.29;78.31;100316.02;116728;1199;23493;-58
2021/10/19 05:16:59;;;;;;;14.00;8.60;;;;;;;3.32;78.32;100317.48;116628;1201;23072;-59
2021/10/19 05:22:15;;;;;;;18.20;8.90;;;;;;;3.38;78.49;100315.38;110751;1195;544895;-59
2021/10/19 05:24:43;;;;;;;12.70;7.90;;;;;;;3.37;78.27;100321.05;116182;1203;138815;-59
2021/10/19 05:27:11;;;;;;;16.00;9.00;;;;;;;3.38;78.20;100320.20;116254;1204;22267;-59
2021/10/19 05:29:39;;;;;;;17.20;8.50;;;;;;;3.40;78.27;100322.45;116184;1204;23034;-59
2021/10/19 05:32:07;;;;;;;14.10;8.10;;;;;;;3.43;78.42;100322.29;115829;1205;137893;-59
2021/10/19 05:34:36;;;;;;;13.10;7.80;;;;;;;3.46;78.33;100318.70;116005;1205;22162;-59
2021/10/19 05:37:04;;;;;;;17.30;8.80;;;;;;;3.48;78.38;100321.98;115931;1205;137193;-59
2021/10/19 05:39:33;;;;;;;18.80;10.50;;;;;;;3.53;78.39;100323.36;116199;1205;22220;-60
2021/10/19 05:42:04;;;;;;;24.20;10.20;;;;;;;3.58;78.38;100320.19;115994;1205;138456;-60
2021/10/19 05:44:34;;;;;;;18.10;10.50;;;;;;;3.66;78.27;100328.13;116197;1204;23445;-60
2021/10/19 05:47:02;;;;;;;20.10;9.60;;;;;;;3.71;77.85;100331.04;116107;1200;22331;-61
2021/10/19 05:49:30;;;;;;;19.30;8.80;;;;;;;3.75;78.15;100333.27;116009;1205;138391;-60
2021/10/19 05:51:58;;;;;;;23.90;9.30;;;;;;;3.80;77.70;100331.81;116164;1205;22362;-61
2021/10/19 05:54:26;;;;;;;17.80;8.20;;;;;;;3.86;77.87;100334.29;116036;1199;139623;-61
2021/10/19 05:56:54;;;;;;;16.30;9.10;;;;;;;3.92;77.43;100333.70;116213;1198;22415;-60
2021/10/19 05:59:23;;;;;;;13.00;7.60;;;;;;;3.97;77.47;100336.31;116192;1204;22295;-61
2021/10/19 06:01:51;;;;;;;15.70;9.10;;;;;;;4.03;77.26;100341.09;115851;1205;138317;-61
2021/10/19 06:04:19;;;;;;;17.50;7.90;;;;;;;4.08;77.08;100343.12;115964;1193;22372;-61
2021/10/19 06:06:58;;;;;;;14.10;8.30;;;;;;;4.12;77.16;100348.71;115895;1205;137443;-61
2021/10/19 06:09:27;;;;;;;12.50;8.00;;;;;;;4.14;76.68;100349.39;116021;1205;22490;-60
2021/10/19 06:11:55;;;;;;;20.80;8.20;;;;;;;4.14;76.32;100350.69;115849;1205;138733;-61
2021/10/19 06:14:23;;;;;;;13.90;7.80;;;;;;;4.13;76.38;100354.86;116252;1204;22305;-60
2021/10/19 06:16:51;;;;;;;15.00;8.10;;;;;;;4.12;76.35;100350.04;116159;1204;22246;-60
2021/10/19 06:19:20;;;;;;;13.10;7.60;;;;;;;4.15;76.53;100357.54;115921;1204;137331;-60
2021/10/19 06:21:48;;;;;;;13.10;8.40;;;;;;;4.21;76.59;100355.48;116047;1204;22305;-60
2021/10/19 06:24:17;;;;;;;12.90;8.20;;;;;;;4.27;76.59;100352.89;115891;1200;138083;-60
2021/10/19 06:26:46;;;;;;;13.60;8.20;;;;;;;4.33;76.39;100357.95;116031;1205;22478;-61
2021/10/19 06:29:14;;;;;;;13.20;6.80;;;;;;;4.36;75.87;100358.96;116026;1206;22154;-60
2021/10/19 06:31:42;;;;;;;15.70;7.20;;;;;;;4.34;75.29;100357.25;116015;1205;137339;-61
2021/10/19 06:34:10;;;;;;;15.00;7.10;;;;;;;4.34;75.37;100363.27;116150;1204;22254;-61
2021/10/19 06:36:39;;;;;;;13.00;7.60;;;;;;;4.35;75.11;100362.36;116128;1204;137896;-61
2021/10/19 06:39:07;;;;;;;17.00;7.90;;;;;;;4.33;75.17;100362.56;116180;1204;23150;-59
2021/10/19 06:41:35;;;;;;;18.40;12.00;;;;;;;4.34;75.11;100364.63;116173;1205;22335;-59
2021/10/19 06:44:03;;;;;;;15.80;7.20;;;;;;;4.37;75.17;100364.23;115908;1205;138493;-61
2021/10/19 06:46:51;;;;;;;16.70;10.30;;;;;;;4.40;75.00;100367.55;116037;1205;22268;-61
2021/10/19 06:49:19;;;;;;;16.70;10.80;;;;;;;4.44;75.11;100365.50;115901;1199;138286;-60
2021/10/19 06:51:48;;;;;;;16.10;9.70;;;;;;;4.50;74.98;100367.86;116047;1205;22277;-59
2021/10/19 06:54:16;;;;;;;14.50;7.50;;;;;;;4.58;74.86;100369.00;116035;1204;139519;-60
2021/10/19 06:56:45;;;;;;;14.70;6.70;;;;;;;4.66;74.65;100368.36;116272;1204;22246;-60
2021/10/19 06:59:13;;;;;;;14.70;6.60;;;;;;;4.71;74.15;100369.50;116255;1204;22288;-60
2021/10/19 07:01:41;;;;;;;13.40;6.70;;;;;;;4.77;73.74;100368.39;116163;1204;138029;-61
2021/10/19 07:04:09;;;;;;;10.90;7.00;;;;;;;4.82;73.71;100361.06;116258;1204;22334;-59
2021/10/19 07:06:37;;;;;;;14.30;6.90;;;;;;;4.88;73.73;100361.61;116077;1204;137759;-59
2021/10/19 07:09:05;;;;;;;11.60;7.00;;;;;;;4.93;73.42;100360.29;116276;1204;22438;-60
2021/10/19 07:11:33;;;;;;;11.30;5.70;;;;;;;5.01;73.33;100363.27;116266;1203;22300;-59
2021/10/19 07:14:03;;;;;;;14.90;6.80;;;;;;;5.08;73.18;100364.55;115988;1205;137518;-60
2021/10/19 07:16:32;;;;;;;14.20;6.90;;;;;;;5.16;73.01;100366.50;116116;1204;22246;-59
2021/10/19 07:19:00;;;;;;;11.10;6.50;;;;;;;5.24;72.79;100367.31;116002;1204;137728;-59
2021/10/19 07:21:28;;;;;;;13.00;6.50;;;;;;;5.32;72.54;100369.45;116200;1204;23414;-59
2021/10/19 07:23:56;;;;;;;12.50;6.90;;;;;;;5.39;72.20;100366.56;116173;1204;137824;-60
2021/10/19 07:26:24;;;;;;;15.20;7.30;;;;;;;5.50;72.09;100367.52;116023;1205;22308;-59
2021/10/19 07:28:52;;;;;;;12.30;6.80;;;;;;;5.60;72.25;100368.28;116022;1200;22325;-60
2021/10/19 07:31:20;;;;;;;14.20;6.70;;;;;;;5.69;71.64;100367.63;115931;1205;137508;-59
2021/10/19 07:33:48;;;;;;;13.60;7.70;;;;;;;5.78;71.21;100367.65;116067;1204;24923;-60
2021/10/19 07:36:16;;;;;;;11.70;6.10;;;;;;;5.86;71.34;100366.25;116022;1204;138989;-59
2021/10/19 07:38:45;;;;;;;14.60;7.00;;;;;;;5.95;71.15;100361.79;116218;1204;22331;-59
2021/10/19 07:41:13;;;;;;;14.10;6.90;;;;;;;6.04;71.36;100360.80;116206;1204;22336;-73
2021/10/19 07:43:41;;;;;;;46.30;9.60;;;;;;;6.14;71.16;100356.67;115966;1204;137729;-66
2021/10/19 07:46:09;;;;;;;13.00;5.80;;;;;;;6.25;70.81;100356.83;116081;1199;22585;-59
2021/10/19 07:48:38;;;;;;;11.80;5.90;;;;;;;6.35;70.43;100356.27;115986;1205;139262;-68
2021/10/19 07:51:06;;;;;;;11.40;5.40;;;;;;;6.47;69.77;100360.77;116055;1200;22333;-67
2021/10/19 07:53:34;;;;;;;13.70;6.30;;;;;;;6.57;68.92;100361.49;116079;1205;22429;-64
2021/10/19 07:56:02;;;;;;;13.80;5.30;;;;;;;6.66;68.28;100360.68;115918;1204;137191;-65
2021/10/19 07:58:32;;;;;;;7.90;4.90;;;;;;;6.74;67.89;100361.42;116024;1205;22387;-66
2021/10/19 08:01:00;;;;;;;10.10;4.60;;;;;;;6.80;67.61;100361.64;115920;1204;137305;-66
2021/10/19 08:03:32;;;;;;;12.00;5.30;;;;;;;6.89;66.78;100363.84;116053;1204;22281;-65
2021/10/19 08:06:00;;;;;;;8.20;4.70;;;;;;;6.94;66.53;100365.73;115897;1205;138376;-66
2021/10/19 08:08:29;;;;;;;11.90;5.90;;;;;;;7.00;65.43;100364.49;116029;1205;23778;-65
2021/10/19 08:10:57;;;;;;;16.10;6.00;;;;;;;7.03;65.12;100366.08;116012;1205;22306;-65
2021/10/19 08:13:26;;;;;;;12.20;6.20;;;;;;;7.06;65.22;100366.30;115856;1190;137739;-64
2021/10/19 08:15:56;;;;;;;13.40;7.10;;;;;;;7.14;65.32;100370.78;115984;1204;22330;-65
2021/10/19 08:18:25;;;;;;;9.90;5.60;;;;;;;7.21;65.21;100372.99;115913;1205;139593;-65
2021/10/19 08:20:53;;;;;;;16.00;5.00;;;;;;;7.25;64.82;100366.77;116020;1204;22250;-65
2021/10/19 08:23:22;;;;;;;8.60;4.20;;;;;;;7.37;64.48;100374.92;115988;1205;22326;-64
2021/10/19 08:25:50;;;;;;;7.60;3.50;;;;;;;7.45;63.96;100375.68;116103;1204;137848;-64
2021/10/19 08:28:24;;;;;;;8.30;3.50;;;;;;;7.54;62.69;100376.80;116164;1197;23467;-64
2021/10/19 08:30:53;;;;;;;8.40;4.10;;;;;;;7.60;61.80;100377.35;116076;1204;138460;-64
2021/10/19 08:33:21;;;;;;;11.50;5.20;;;;;;;7.67;60.92;100384.85;116192;1204;22387;-64
2021/10/19 08:35:50;;;;;;;10.30;5.80;;;;;;;7.73;59.94;100390.13;116070;1204;138385;-63
2021/10/19 08:38:18;;;;;;;23.50;9.50;;;;;;;7.77;59.94;100392.48;116027;1205;22353;-63
2021/10/19 08:40:46;;;;;;;15.00;6.60;;;;;;;7.80;59.61;100390.85;115986;1205;22336;-62
2021/10/19 08:43:16;;;;;;;25.30;10.80;;;;;;;7.84;59.95;100394.55;115803;1205;137499;-64
2021/10/19 08:45:45;;;;;;;14.60;7.50;;;;;;;7.89;59.74;100388.05;115990;1205;22236;-64
2021/10/19 08:48:13;;;;;;;4.20;3.00;;;;;;;7.94;59.41;100391.10;115868;1205;138249;-63
2021/10/19 08:50:41;;;;;;;6.80;3.30;;;;;;;7.98;59.21;100389.23;116006;1205;23152;-63
2021/10/19 08:53:11;;;;;;;4.50;2.40;;;;;;;8.07;59.01;100393.65;116058;1203;22293;-63
2021/10/19 08:55:40;;;;;;;11.40;1.80;;;;;;;8.13;59.01;100397.65;115894;1204;136756;-63
2021/10/19 08:58:11;;;;;;;24.30;3.90;;;;;;;8.19;58.40;100391.39;115951;1205;22524;-63
2021/10/19 09:00:41;;;;;;;10.90;4.50;;;;;;;8.25;58.41;100389.61;115909;1205;137972;-63
2021/10/19 09:03:09;;;;;;;6.90;2.20;;;;;;;8.31;57.61;100398.60;116559;1200;22142;-64
2021/10/19 09:05:38;;;;;;;6.10;2.00;;;;;;;8.36;57.11;100398.23;116563;1195;23322;-64
2021/10/19 09:08:11;;;;;;;9.60;3.30;;;;;;;8.40;57.31;100396.06;116483;1193;136803;-64
2021/10/19 09:10:40;;;;;;;58.30;4.80;;;;;;;8.43;56.53;100397.59;116663;1201;22991;-63
2021/10/19 09:13:12;;;;;;;4.20;2.00;;;;;;;8.46;56.80;100400.38;116654;1199;138103;-65
2021/10/19 09:15:45;;;;;;;34.80;19.30;;;;;;;8.49;54.81;100403.98;116699;1200;22247;-63
2021/10/19 09:18:15;;;;;;;25.60;9.70;;;;;;;8.44;53.12;100395.95;116886;1198;137285;-64
2021/10/19 09:20:49;;;;;;;35.80;21.00;;;;;;;8.44;53.99;100399.67;116952;1199;22217;-64
2021/10/19 09:23:18;;;;;;;12.60;6.30;;;;;;;8.48;53.78;100396.73;116968;1199;23034;-64
2021/10/19 09:25:47;;;;;;;9.20;5.40;;;;;;;8.50;53.74;100394.07;116660;1193;136793;-65
2021/10/19 09:28:30;;;;;;;9.30;2.20;;;;;;;8.52;54.08;100394.66;116640;1200;22319;-64
2021/10/19 09:30:58;;;;;;;5.20;3.50;;;;;;;8.55;54.45;100390.50;116461;1193;136786;-64
2021/10/19 09:33:26;;;;;;;4.80;2.40;;;;;;;8.59;54.69;100389.10;116651;1200;22248;-63
2021/10/19 09:35:55;;;;;;;13.90;2.20;;;;;;;8.63;54.84;100381.29;116564;1199;137146;-63
2021/10/19 09:38:23;;;;;;;4.00;2.30;;;;;;;8.66;55.14;100383.05;116965;1198;22228;-62
2021/10/19 09:40:53;;;;;;;6.40;2.20;;;;;;;8.71;54.32;100387.38;116973;1199;23438;-64
2021/10/19 09:43:26;;;;;;;6.00;2.20;;;;;;;8.73;53.39;100391.38;116600;1199;136802;-64
2021/10/19 09:45:56;;;;;;;7.30;2.40;;;;;;;8.68;53.13;100394.34;116592;1200;22326;-64
2021/10/19 09:48:31;;;;;;;19.90;11.20;;;;;;;8.62;53.72;100395.09;116606;1198;137076;-64
2021/10/19 09:51:01;;;;;;;57.60;36.00;;;;;;;8.60;54.32;100393.89;116711;1200;23460;-64
2021/10/19 09:53:30;;;;;;;20.50;13.10;;;;;;;8.62;54.77;100393.20;116626;1200;23029;-64
2021/10/19 09:55:59;;;;;;;8.70;3.80;;;;;;;8.65;54.18;100384.14;116683;1199;138404;-64
2021/10/19 09:58:28;;;;;;;6.20;3.10;;;;;;;8.75;53.63;100387.85;116716;1200;22502;-64
2021/10/19 10:00:56;;;;;;;6.60;3.70;;;;;;;8.82;52.23;100388.73;116550;1199;138356;-64
2021/10/19 10:03:24;;;;;;;4.20;3.20;;;;;;;8.89;51.87;100389.79;116662;1200;22387;-64
2021/10/19 10:05:53;;;;;;;4.60;2.00;;;;;;;8.93;52.11;100389.80;116490;1200;138859;-64
2021/10/19 10:08:23;;;;;;;5.00;2.30;;;;;;;8.95;52.37;100379.84;116631;1199;22387;-65
2021/10/19 10:10:52;;;;;;;6.60;1.90;;;;;;;8.98;52.36;100376.09;116638;1200;22348;-64
2021/10/19 10:13:20;;;;;;;6.30;1.80;;;;;;;9.05;52.04;100385.27;116733;1199;137696;-65
2021/10/19 10:15:50;;;;;;;7.70;1.70;;;;;;;9.10;51.00;100381.34;116944;1199;23023;-64
2021/10/19 10:18:30;;;;;;;3.80;1.90;;;;;;;9.12;50.58;100375.84;116807;1199;138798;-64
2021/10/19 10:20:58;;;;;;;2.50;1.40;;;;;;;9.12;50.62;100374.55;117048;1199;23332;-64
2021/10/19 10:23:27;;;;;;;3.50;1.60;;;;;;;9.15;50.14;100375.05;116960;1199;22360;-64
2021/10/19 10:25:57;;;;;;;5.40;1.60;;;;;;;9.16;49.76;100369.35;116540;1199;137517;-64
2021/10/19 10:28:26;;;;;;;4.80;1.60;;;;;;;9.16;49.60;100370.44;116677;1199;23255;-65
2021/10/19 10:30:55;;;;;;;1.80;1.30;;;;;;;9.16;48.79;100366.17;116680;1199;139917;-65
2021/10/19 10:33:37;;;;;;;2.80;1.40;;;;;;;9.16;47.82;100365.05;116951;1199;22249;-64
2021/10/19 10:36:06;;;;;;;10.90;1.90;;;;;;;9.18;48.06;100362.89;116785;1199;137515;-65
2021/10/19 10:38:35;;;;;;;3.70;2.00;;;;;;;9.22;47.75;100362.38;116622;1199;22376;-65
2021/10/19 10:41:08;;;;;;;3.70;1.80;;;;;;;9.26;45.94;100366.67;113107;1199;22389;-64
2021/10/19 10:43:36;;;;;;;2.30;1.30;;;;;;;9.26;46.23;100361.23;112379;1199;142251;-63
2021/10/19 10:46:07;;;;;;;3.10;1.70;;;;;;;9.25;46.63;100366.59;116906;1199;23234;-64
2021/10/19 10:48:35;;;;;;;4.40;1.80;;;;;;;9.25;47.13;100365.30;116727;1198;137462;-64
2021/10/19 10:51:04;;;;;;;7.70;2.00;;;;;;;9.25;47.56;100361.15;116615;1199;22436;-64
2021/10/19 10:53:43;;;;;;;6.90;1.90;;;;;;;9.26;47.13;100366.45;116652;1199;23135;-63
2021/10/19 10:56:13;;;;;;;3.60;1.80;;;;;;;9.25;45.55;100357.35;116888;1199;137648;-62
2021/10/19 10:58:41;;;;;;;2.50;1.40;;;;;;;9.24;44.94;100363.90;116886;1199;22336;-64
2021/10/19 11:01:14;;;;;;;9.30;1.40;;;;;;;9.23;44.55;100356.33;116667;1199;137931;-62
2021/10/19 11:03:43;;;;;;;7.20;1.70;;;;;;;9.26;44.65;100357.30;116655;1200;22242;-62
2021/10/19 11:06:13;;;;;;;2.60;1.60;;;;;;;9.29;44.25;100358.77;116506;1194;138194;-63
2021/10/19 11:08:41;;;;;;;41.50;3.40;;;;;;;9.30;44.51;100353.45;116946;1198;23371;-62
2021/10/19 11:11:19;;;;;;;7.40;2.10;;;;;;;9.30;44.74;100350.05;116989;1199;22301;-62
2021/10/19 11:13:54;;;;;;;14.20;2.50;;;;;;;9.33;45.02;100347.52;116555;1199;138055;-62
2021/10/19 11:16:50;;;;;;;3.40;2.30;;;;;;;9.37;44.81;100349.04;116635;1200;22325;-62
2021/10/19 11:19:26;;;;;;;4.20;2.10;;;;;;;9.40;45.18;100345.98;116679;1199;137924;-62
2021/10/19 11:21:56;;;;;;;4.40;2.20;;;;;;;9.43;44.20;100345.45;117006;1199;22348;-62
2021/10/19 11:24:27;;;;;;;9.60;5.60;;;;;;;9.45;43.12;100343.21;116698;1199;137829;-62
2021/10/19 11:26:55;;;;;;;4.70;3.50;;;;;;;9.46;43.00;100345.27;116601;1199;22158;-62